sensor_id;sensor_type;location;lat;lon;timestamp;pressure;altitude;pressure_sealevel;temperature;humidity
38900;BME280;24660;43.238;26.576;2022-09-09T00:03:26;99472.22;;;16.79;95.41
38900;BME280;24660;43.238;26.576;2022-09-09T00:05:56;99462.41;;;16.70;94.63
38900;BME280;24660;43.238;26.576;2022-09-09T00:08:29;99468.25;;;16.65;95.57
38900;BME280;24660;43.238;26.576;2022-09-09T00:10:59;99457.84;;;16.36;98.34
38900;BME280;24660;43.238;26.576;2022-09-09T00:13:35;99462.66;;;16.58;97.98
38900;BME280;24660;43.238;26.576;2022-09-09T00:16:04;99461.94;;;16.48;99.64
38900;BME280;24660;43.238;26.576;2022-09-09T00:21:13;99467.88;;;16.26;100.00
38900;BME280;24660;43.238;26.576;2022-09-09T00:23:44;99463.41;;;16.35;100.00
38900;BME280;24660;43.238;26.576;2022-09-09T00:26:14;99469.47;;;16.11;100.00
38900;BME280;24660;43.238;26.576;2022-09-09T00:28:49;99464.53;;;16.32;100.00
38900;BME280;24660;43.238;26.576;2022-09-09T00:31:19;99467.81;;;16.18;100.00
38900;BME280;24660;43.238;26.576;2022-09-09T00:33:46;99463.16;;;16.20;100.00
38900;BME280;24660;43.238;26.576;2022-09-09T00:36:13;99460.38;;;16.12;100.00
38900;BME280;24660;43.238;26.576;2022-09-09T00:38:42;99455.66;;;16.14;100.00
38900;BME280;24660;43.238;26.576;2022-09-09T00:43:35;99452.94;;;16.06;100.00
38900;BME280;24660;43.238;26.576;2022-09-09T00:53:59;99444.44;;;15.74;100.00
38900;BME280;24660;43.238;26.576;2022-09-09T00:56:32;99448.47;;;15.70;100.00
38900;BME280;24660;43.238;26.576;2022-09-09T01:01:25;99446.69;;;15.43;100.00
38900;BME280;24660;43.238;26.576;2022-09-09T01:03:54;99450.03;;;15.37;100.00
38900;BME280;24660;43.238;26.576;2022-09-09T01:06:25;99443.06;;;15.70;100.00
38900;BME280;24660;43.238;26.576;2022-09-09T01:08:57;99443.25;;;15.95;100.00
38900;BME280;24660;43.238;26.576;2022-09-09T01:11:26;99437.72;;;15.96;100.00
38900;BME280;24660;43.238;26.576;2022-09-09T01:14:01;99443.25;;;15.69;100.00
38900;BME280;24660;43.238;26.576;2022-09-09T01:16:28;99441.63;;;15.40;100.00
38900;BME280;24660;43.238;26.576;2022-09-09T01:18:55;99448.31;;;15.54;100.00
38900;BME280;24660;43.238;26.576;2022-09-09T01:21:30;99446.94;;;15.68;100.00
38900;BME280;24660;43.238;26.576;2022-09-09T01:26:39;99462.19;;;15.59;100.00
38900;BME280;24660;43.238;26.576;2022-09-09T01:29:07;99464.78;;;15.33;100.00
38900;BME280;24660;43.238;26.576;2022-09-09T01:31:37;99457.16;;;15.11;100.00
38900;BME280;24660;43.238;26.576;2022-09-09T01:34:07;99462.88;;;15.26;100.00
38900;BME280;24660;43.238;26.576;2022-09-09T01:36:35;99451.25;;;15.07;100.00
38900;BME280;24660;43.238;26.576;2022-09-09T01:39:03;99452.25;;;15.06;100.00
38900;BME280;24660;43.238;26.576;2022-09-09T01:41:29;99446.63;;;15.35;100.00
38900;BME280;24660;43.238;26.576;2022-09-09T01:43:54;99447.22;;;15.29;100.00
38900;BME280;24660;43.238;26.576;2022-09-09T01:46:21;99452.69;;;15.73;100.00
38900;BME280;24660;43.238;26.576;2022-09-09T01:48:47;99457.63;;;15.78;100.00
38900;BME280;24660;43.238;26.576;2022-09-09T01:51:13;99464.16;;;15.39;100.00
38900;BME280;24660;43.238;26.576;2022-09-09T01:53:39;99455.41;;;15.37;100.00
38900;BME280;24660;43.238;26.576;2022-09-09T01:56:11;99458.84;;;15.30;100.00
38900;BME280;24660;43.238;26.576;2022-09-09T01:58:45;99456.63;;;15.07;100.00
38900;BME280;24660;43.238;26.576;2022-09-09T02:01:34;99453.84;;;15.17;100.00
38900;BME280;24660;43.238;26.576;2022-09-09T02:03:58;99449.63;;;15.50;100.00
38900;BME280;24660;43.238;26.576;2022-09-09T02:06:34;99456.16;;;15.30;100.00
38900;BME280;24660;43.238;26.576;2022-09-09T02:09:01;99460.31;;;15.24;100.00
38900;BME280;24660;43.238;26.576;2022-09-09T02:11:28;99456.00;;;14.96;100.00
38900;BME280;24660;43.238;26.576;2022-09-09T02:13:57;99454.69;;;15.00;100.00
38900;BME280;24660;43.238;26.576;2022-09-09T02:16:27;99457.75;;;15.05;100.00
38900;BME280;24660;43.238;26.576;2022-09-09T02:21:19;99454.00;;;15.15;100.00
38900;BME280;24660;43.238;26.576;2022-09-09T02:23:46;99454.47;;;15.11;100.00
38900;BME280;24660;43.238;26.576;2022-09-09T02:26:13;99453.84;;;15.17;100.00
38900;BME280;24660;43.238;26.576;2022-09-09T02:28:44;99460.44;;;15.05;100.00
38900;BME280;24660;43.238;26.576;2022-09-09T02:31:10;99460.78;;;14.74;100.00
38900;BME280;24660;43.238;26.576;2022-09-09T02:33:37;99462.44;;;14.85;100.00
38900;BME280;24660;43.238;26.576;2022-09-09T02:36:04;99459.72;;;14.85;100.00
38900;BME280;24660;43.238;26.576;2022-09-09T02:38:33;99465.34;;;14.92;100.00
38900;BME280;24660;43.238;26.576;2022-09-09T02:41:00;99463.03;;;14.51;100.00
38900;BME280;24660;43.238;26.576;2022-09-09T02:43:30;99466.16;;;14.74;100.00
38900;BME280;24660;43.238;26.576;2022-09-09T02:46:08;99457.72;;;14.87;100.00
38900;BME280;24660;43.238;26.576;2022-09-09T02:48:43;99449.75;;;14.50;100.00
38900;BME280;24660;43.238;26.576;2022-09-09T02:51:15;99450.00;;;14.47;100.00
38900;BME280;24660;43.238;26.576;2022-09-09T02:53:55;99441.19;;;14.64;100.00
38900;BME280;24660;43.238;26.576;2022-09-09T02:56:25;99445.75;;;14.54;100.00
38900;BME280;24660;43.238;26.576;2022-09-09T02:58:53;99452.16;;;14.71;100.00
38900;BME280;24660;43.238;26.576;2022-09-09T03:01:19;99452.00;;;14.45;100.00
38900;BME280;24660;43.238;26.576;2022-09-09T03:03:45;99450.16;;;14.45;100.00
38900;BME280;24660;43.238;26.576;2022-09-09T03:06:11;99451.97;;;14.54;100.00
38900;BME280;24660;43.238;26.576;2022-09-09T03:08:37;99451.00;;;14.73;100.00
38900;BME280;24660;43.238;26.576;2022-09-09T03:11:03;99449.38;;;14.63;100.00
38900;BME280;24660;43.238;26.576;2022-09-09T03:13:28;99446.75;;;14.53;100.00
38900;BME280;24660;43.238;26.576;2022-09-09T03:15:57;99445.13;;;14.60;100.00
38900;BME280;24660;43.238;26.576;2022-09-09T03:18:22;99452.00;;;14.45;100.00
38900;BME280;24660;43.238;26.576;2022-09-09T03:20:48;99452.31;;;14.32;100.00
38900;BME280;24660;43.238;26.576;2022-09-09T03:23:13;99452.88;;;14.36;100.00
38900;BME280;24660;43.238;26.576;2022-09-09T03:25:38;99453.84;;;14.35;100.00
38900;BME280;24660;43.238;26.576;2022-09-09T03:28:04;99448.38;;;14.26;100.00
38900;BME280;24660;43.238;26.576;2022-09-09T03:30:29;99444.03;;;14.16;100.00
38900;BME280;24660;43.238;26.576;2022-09-09T03:32:55;99446.19;;;14.03;100.00
38900;BME280;24660;43.238;26.576;2022-09-09T03:35:21;99447.59;;;14.07;100.00
38900;BME280;24660;43.238;26.576;2022-09-09T03:37:47;99444.06;;;14.06;100.00
38900;BME280;24660;43.238;26.576;2022-09-09T03:40:13;99453.53;;;14.10;100.00
38900;BME280;24660;43.238;26.576;2022-09-09T03:42:39;99445.38;;;14.39;100.00
38900;BME280;24660;43.238;26.576;2022-09-09T03:45:05;99445.25;;;14.31;100.00
38900;BME280;24660;43.238;26.576;2022-09-09T03:47:30;99452.00;;;14.08;100.00
38900;BME280;24660;43.238;26.576;2022-09-09T03:49:56;99450.47;;;14.33;100.00
38900;BME280;24660;43.238;26.576;2022-09-09T03:52:21;99443.56;;;14.67;100.00
38900;BME280;24660;43.238;26.576;2022-09-09T03:54:50;99447.75;;;14.52;100.00
38900;BME280;24660;43.238;26.576;2022-09-09T03:57:15;99443.94;;;14.08;100.00
38900;BME280;24660;43.238;26.576;2022-09-09T03:59:42;99457.38;;;14.35;100.00
38900;BME280;24660;43.238;26.576;2022-09-09T04:02:07;99461.00;;;14.16;100.00
38900;BME280;24660;43.238;26.576;2022-09-09T04:04:32;99467.59;;;13.94;100.00
38900;BME280;24660;43.238;26.576;2022-09-09T04:06:57;99477.13;;;14.26;100.00
38900;BME280;24660;43.238;26.576;2022-09-09T04:09:23;99473.03;;;14.22;100.00
38900;BME280;24660;43.238;26.576;2022-09-09T04:11:48;99462.75;;;14.08;100.00
38900;BME280;24660;43.238;26.576;2022-09-09T04:14:14;99460.31;;;14.14;100.00
38900;BME280;24660;43.238;26.576;2022-09-09T04:16:40;99465.97;;;14.11;100.00
38900;BME280;24660;43.238;26.576;2022-09-09T04:19:09;99471.31;;;14.21;100.00
38900;BME280;24660;43.238;26.576;2022-09-09T04:21:37;99475.97;;;14.29;100.00
38900;BME280;24660;43.238;26.576;2022-09-09T04:24:04;99476.25;;;14.25;100.00
38900;BME280;24660;43.238;26.576;2022-09-09T04:26:30;99472.88;;;14.61;100.00
38900;BME280;24660;43.238;26.576;2022-09-09T04:28:55;99470.66;;;14.83;100.00
38900;BME280;24660;43.238;26.576;2022-09-09T04:31:21;99470.63;;;15.11;100.00
38900;BME280;24660;43.238;26.576;2022-09-09T04:33:48;99477.44;;;15.05;100.00
38900;BME280;24660;43.238;26.576;2022-09-09T04:36:14;99470.13;;;14.98;100.00
38900;BME280;24660;43.238;26.576;2022-09-09T04:38:39;99471.53;;;15.02;100.00
38900;BME280;24660;43.238;26.576;2022-09-09T04:41:05;99467.44;;;14.98;100.00
38900;BME280;24660;43.238;26.576;2022-09-09T04:43:30;99477.31;;;15.25;100.00
38900;BME280;24660;43.238;26.576;2022-09-09T04:45:56;99478.84;;;15.45;100.00
38900;BME280;24660;43.238;26.576;2022-09-09T04:48:21;99477.84;;;15.28;100.00
38900;BME280;24660;43.238;26.576;2022-09-09T04:53:27;99463.91;;;16.12;100.00
38900;BME280;24660;43.238;26.576;2022-09-09T04:56:00;99455.50;;;16.15;100.00
38900;BME280;24660;43.238;26.576;2022-09-09T04:58:26;99453.47;;;16.43;100.00
38900;BME280;24660;43.238;26.576;2022-09-09T05:00:52;99457.06;;;16.52;100.00
38900;BME280;24660;43.238;26.576;2022-09-09T05:03:17;99452.66;;;16.17;100.00
38900;BME280;24660;43.238;26.576;2022-09-09T05:05:42;99447.38;;;16.33;100.00
38900;BME280;24660;43.238;26.576;2022-09-09T05:08:07;99445.03;;;16.72;100.00
38900;BME280;24660;43.238;26.576;2022-09-09T05:10:34;99454.56;;;17.01;100.00
38900;BME280;24660;43.238;26.576;2022-09-09T05:13:01;99452.09;;;17.56;99.05
38900;BME280;24660;43.238;26.576;2022-09-09T05:15:29;99452.13;;;17.48;96.94
38900;BME280;24660;43.238;26.576;2022-09-09T05:17:58;99455.50;;;17.66;97.12
38900;BME280;24660;43.238;26.576;2022-09-09T05:20:24;99454.00;;;18.04;97.04
38900;BME280;24660;43.238;26.576;2022-09-09T05:22:52;99457.16;;;18.24;94.19
38900;BME280;24660;43.238;26.576;2022-09-09T05:25:17;99455.28;;;18.80;92.48
38900;BME280;24660;43.238;26.576;2022-09-09T05:27:44;99441.19;;;18.46;92.84
38900;BME280;24660;43.238;26.576;2022-09-09T05:30:10;99448.44;;;18.53;93.46
38900;BME280;24660;43.238;26.576;2022-09-09T05:32:35;99454.72;;;19.24;90.80
38900;BME280;24660;43.238;26.576;2022-09-09T05:37:58;99467.59;;;21.02;81.05
38900;BME280;24660;43.238;26.576;2022-09-09T05:40:24;99459.94;;;20.61;79.15
38900;BME280;24660;43.238;26.576;2022-09-09T05:42:49;99468.81;;;21.36;77.68
38900;BME280;24660;43.238;26.576;2022-09-09T05:45:14;99459.53;;;20.94;78.13
38900;BME280;24660;43.238;26.576;2022-09-09T05:47:40;99469.56;;;20.93;78.21
38900;BME280;24660;43.238;26.576;2022-09-09T05:50:05;99472.09;;;20.95;78.32
38900;BME280;24660;43.238;26.576;2022-09-09T05:52:30;99465.31;;;20.69;79.69
38900;BME280;24660;43.238;26.576;2022-09-09T05:54:56;99465.56;;;20.74;80.58
38900;BME280;24660;43.238;26.576;2022-09-09T05:57:22;99465.97;;;20.57;79.27
38900;BME280;24660;43.238;26.576;2022-09-09T05:59:47;99460.72;;;20.55;81.22
38900;BME280;24660;43.238;26.576;2022-09-09T06:02:12;99454.31;;;20.63;81.63
38900;BME280;24660;43.238;26.576;2022-09-09T06:04:38;99450.69;;;21.07;80.23
38900;BME280;24660;43.238;26.576;2022-09-09T06:07:04;99453.16;;;21.01;79.18
38900;BME280;24660;43.238;26.576;2022-09-09T06:09:29;99453.03;;;21.10;75.84
38900;BME280;24660;43.238;26.576;2022-09-09T06:11:55;99457.94;;;21.36;73.27
38900;BME280;24660;43.238;26.576;2022-09-09T06:14:21;99459.00;;;21.56;72.26
38900;BME280;24660;43.238;26.576;2022-09-09T06:16:47;99461.06;;;21.75;70.32
38900;BME280;24660;43.238;26.576;2022-09-09T06:19:12;99457.31;;;21.76;72.59
38900;BME280;24660;43.238;26.576;2022-09-09T06:21:37;99454.81;;;22.03;71.67
38900;BME280;24660;43.238;26.576;2022-09-09T06:24:03;99462.59;;;22.06;68.84
38900;BME280;24660;43.238;26.576;2022-09-09T06:26:29;99465.22;;;22.20;69.50
38900;BME280;24660;43.238;26.576;2022-09-09T06:28:55;99457.66;;;22.50;68.33
38900;BME280;24660;43.238;26.576;2022-09-09T06:31:24;99453.94;;;22.23;67.26
38900;BME280;24660;43.238;26.576;2022-09-09T06:33:50;99448.81;;;21.86;66.38
38900;BME280;24660;43.238;26.576;2022-09-09T06:36:17;99451.28;;;22.30;68.35
38900;BME280;24660;43.238;26.576;2022-09-09T06:38:43;99458.00;;;22.69;67.84
38900;BME280;24660;43.238;26.576;2022-09-09T06:41:09;99470.44;;;23.26;66.98
38900;BME280;24660;43.238;26.576;2022-09-09T06:43:35;99474.38;;;23.17;62.83
38900;BME280;24660;43.238;26.576;2022-09-09T06:46:02;99465.09;;;23.04;62.83
38900;BME280;24660;43.238;26.576;2022-09-09T06:48:28;99471.38;;;23.59;62.56
38900;BME280;24660;43.238;26.576;2022-09-09T06:53:35;99464.44;;;24.56;58.39
38900;BME280;24660;43.238;26.576;2022-09-09T06:56:01;99463.47;;;24.95;56.53
38900;BME280;24660;43.238;26.576;2022-09-09T06:58:27;99455.63;;;24.54;58.09
38900;BME280;24660;43.238;26.576;2022-09-09T07:01:01;99452.69;;;24.42;56.07
38900;BME280;24660;43.238;26.576;2022-09-09T07:03:26;99458.78;;;25.15;53.89
38900;BME280;24660;43.238;26.576;2022-09-09T07:05:55;99462.91;;;25.31;53.86
38900;BME280;24660;43.238;26.576;2022-09-09T07:08:21;99457.44;;;25.69;53.35
38900;BME280;24660;43.238;26.576;2022-09-09T07:10:46;99450.34;;;26.12;51.21
38900;BME280;24660;43.238;26.576;2022-09-09T07:13:12;99456.38;;;25.70;51.49
38900;BME280;24660;43.238;26.576;2022-09-09T07:15:40;99456.66;;;25.17;53.40
38900;BME280;24660;43.238;26.576;2022-09-09T07:18:06;99455.88;;;24.97;53.58
38900;BME280;24660;43.238;26.576;2022-09-09T07:20:31;99460.53;;;24.90;53.05
38900;BME280;24660;43.238;26.576;2022-09-09T07:22:57;99464.59;;;24.74;53.04
38900;BME280;24660;43.238;26.576;2022-09-09T07:25:24;99459.94;;;25.71;51.91
38900;BME280;24660;43.238;26.576;2022-09-09T07:27:53;99464.78;;;26.25;50.33
38900;BME280;24660;43.238;26.576;2022-09-09T07:30:19;99462.03;;;26.87;49.69
38900;BME280;24660;43.238;26.576;2022-09-09T07:32:44;99463.78;;;26.63;49.11
38900;BME280;24660;43.238;26.576;2022-09-09T07:35:09;99463.56;;;27.19;47.64
38900;BME280;24660;43.238;26.576;2022-09-09T07:37:36;99467.16;;;27.50;46.48
38900;BME280;24660;43.238;26.576;2022-09-09T07:40:01;99468.16;;;27.07;46.76
38900;BME280;24660;43.238;26.576;2022-09-09T07:42:29;99461.00;;;27.06;47.95
38900;BME280;24660;43.238;26.576;2022-09-09T07:44:55;99457.44;;;27.66;46.73
38900;BME280;24660;43.238;26.576;2022-09-09T07:47:20;99460.63;;;28.04;47.41
38900;BME280;24660;43.238;26.576;2022-09-09T07:49:46;99450.25;;;28.18;48.61
38900;BME280;24660;43.238;26.576;2022-09-09T07:52:11;99443.66;;;28.19;45.66
38900;BME280;24660;43.238;26.576;2022-09-09T07:54:37;99441.06;;;28.36;44.98
38900;BME280;24660;43.238;26.576;2022-09-09T07:57:02;99435.22;;;28.44;45.20
38900;BME280;24660;43.238;26.576;2022-09-09T07:59:29;99432.88;;;28.76;45.22
38900;BME280;24660;43.238;26.576;2022-09-09T08:01:55;99428.31;;;28.82;43.32
38900;BME280;24660;43.238;26.576;2022-09-09T08:04:21;99417.84;;;28.55;42.90
38900;BME280;24660;43.238;26.576;2022-09-09T08:06:48;99425.06;;;27.68;45.77
38900;BME280;24660;43.238;26.576;2022-09-09T08:09:17;99420.47;;;28.15;44.32
38900;BME280;24660;43.238;26.576;2022-09-09T08:11:43;99415.22;;;28.25;43.98
38900;BME280;24660;43.238;26.576;2022-09-09T08:14:09;99413.22;;;27.26;45.02
38900;BME280;24660;43.238;26.576;2022-09-09T08:16:38;99423.31;;;27.97;43.66
38900;BME280;24660;43.238;26.576;2022-09-09T08:19:04;99425.50;;;28.18;43.74
38900;BME280;24660;43.238;26.576;2022-09-09T08:21:31;99425.00;;;27.98;44.14
38900;BME280;24660;43.238;26.576;2022-09-09T08:24:05;99412.28;;;26.83;44.97
38900;BME280;24660;43.238;26.576;2022-09-09T08:26:31;99421.19;;;27.57;44.45
38900;BME280;24660;43.238;26.576;2022-09-09T08:28:58;99424.28;;;28.14;43.63
38900;BME280;24660;43.238;26.576;2022-09-09T08:31:26;99419.22;;;28.81;42.48
38900;BME280;24660;43.238;26.576;2022-09-09T08:33:53;99415.75;;;28.86;41.63
38900;BME280;24660;43.238;26.576;2022-09-09T08:36:26;99415.69;;;28.22;43.48
38900;BME280;24660;43.238;26.576;2022-09-09T08:38:53;99422.38;;;28.15;43.25
38900;BME280;24660;43.238;26.576;2022-09-09T08:43:45;99404.34;;;28.42;41.04
38900;BME280;24660;43.238;26.576;2022-09-09T08:46:15;99406.97;;;28.14;42.72
38900;BME280;24660;43.238;26.576;2022-09-09T08:48:51;99402.09;;;28.39;42.80
38900;BME280;24660;43.238;26.576;2022-09-09T08:51:21;99410.63;;;28.78;42.44
38900;BME280;24660;43.238;26.576;2022-09-09T08:53:50;99403.47;;;28.88;40.84
38900;BME280;24660;43.238;26.576;2022-09-09T08:56:16;99399.97;;;29.21;40.23
38900;BME280;24660;43.238;26.576;2022-09-09T08:58:45;99394.81;;;28.45;41.87
38900;BME280;24660;43.238;26.576;2022-09-09T09:03:43;99393.19;;;29.12;40.42
38900;BME280;24660;43.238;26.576;2022-09-09T09:06:19;99387.13;;;29.27;40.73
38900;BME280;24660;43.238;26.576;2022-09-09T09:08:52;99385.06;;;29.34;41.13
38900;BME280;24660;43.238;26.576;2022-09-09T09:11:19;99388.63;;;29.18;40.94
38900;BME280;24660;43.238;26.576;2022-09-09T09:13:47;99372.34;;;28.88;41.48
38900;BME280;24660;43.238;26.576;2022-09-09T09:18:39;99354.34;;;29.25;40.29
38900;BME280;24660;43.238;26.576;2022-09-09T09:23:34;99345.25;;;29.25;40.58
38900;BME280;24660;43.238;26.576;2022-09-09T09:26:01;99348.31;;;29.57;40.11
38900;BME280;24660;43.238;26.576;2022-09-09T09:28:28;99363.00;;;29.79;39.45
38900;BME280;24660;43.238;26.576;2022-09-09T09:36:05;99351.06;;;29.91;38.98
38900;BME280;24660;43.238;26.576;2022-09-09T09:38:33;99364.03;;;29.57;39.21
38900;BME280;24660;43.238;26.576;2022-09-09T09:40:59;99343.50;;;28.90;41.87
38900;BME280;24660;43.238;26.576;2022-09-09T09:43:26;99355.66;;;29.23;40.60
38900;BME280;24660;43.238;26.576;2022-09-09T09:45:52;99357.75;;;29.61;39.90
38900;BME280;24660;43.238;26.576;2022-09-09T09:48:18;99350.06;;;29.80;39.40
38900;BME280;24660;43.238;26.576;2022-09-09T09:50:47;99342.59;;;29.97;39.66
38900;BME280;24660;43.238;26.576;2022-09-09T09:53:22;99346.59;;;29.39;40.19
38900;BME280;24660;43.238;26.576;2022-09-09T09:55:52;99347.63;;;29.67;39.92
38900;BME280;24660;43.238;26.576;2022-09-09T09:58:19;99353.72;;;29.69;40.34
38900;BME280;24660;43.238;26.576;2022-09-09T10:00:52;99353.06;;;29.78;39.47
38900;BME280;24660;43.238;26.576;2022-09-09T10:03:22;99362.84;;;29.24;41.52
38900;BME280;24660;43.238;26.576;2022-09-09T10:05:47;99350.59;;;29.15;41.50
38900;BME280;24660;43.238;26.576;2022-09-09T10:08:13;99360.06;;;29.52;40.31
38900;BME280;24660;43.238;26.576;2022-09-09T10:10:49;99346.47;;;29.63;41.16
38900;BME280;24660;43.238;26.576;2022-09-09T10:15:50;99348.47;;;29.05;41.87
38900;BME280;24660;43.238;26.576;2022-09-09T10:21:02;99356.75;;;29.22;40.52
38900;BME280;24660;43.238;26.576;2022-09-09T10:23:42;99357.41;;;29.74;40.42
38900;BME280;24660;43.238;26.576;2022-09-09T10:31:08;99352.81;;;29.46;41.24
38900;BME280;24660;43.238;26.576;2022-09-09T10:36:20;99347.38;;;29.51;40.42
38900;BME280;24660;43.238;26.576;2022-09-09T10:38:46;99352.09;;;29.39;40.72
38900;BME280;24660;43.238;26.576;2022-09-09T10:41:15;99343.13;;;29.77;39.63
38900;BME280;24660;43.238;26.576;2022-09-09T10:43:56;99342.72;;;29.07;42.11
38900;BME280;24660;43.238;26.576;2022-09-09T10:49:00;99332.97;;;29.16;40.50
38900;BME280;24660;43.238;26.576;2022-09-09T10:56:54;99340.34;;;29.94;40.37
38900;BME280;24660;43.238;26.576;2022-09-09T10:59:23;99335.00;;;30.04;40.18
38900;BME280;24660;43.238;26.576;2022-09-09T11:01:53;99338.53;;;29.83;39.48
38900;BME280;24660;43.238;26.576;2022-09-09T11:04:24;99321.50;;;29.52;40.02
38900;BME280;24660;43.238;26.576;2022-09-09T11:06:52;99327.84;;;29.53;39.99
38900;BME280;24660;43.238;26.576;2022-09-09T11:09:21;99327.66;;;29.93;39.45
38900;BME280;24660;43.238;26.576;2022-09-09T11:11:54;99319.34;;;29.71;40.38
38900;BME280;24660;43.238;26.576;2022-09-09T11:16:48;99318.59;;;30.31;38.62
38900;BME280;24660;43.238;26.576;2022-09-09T11:19:19;99313.03;;;30.09;38.79
38900;BME280;24660;43.238;26.576;2022-09-09T11:21:47;99309.63;;;30.63;38.35
38900;BME280;24660;43.238;26.576;2022-09-09T11:27:02;99317.41;;;30.93;37.70
38900;BME280;24660;43.238;26.576;2022-09-09T11:32:19;99311.13;;;30.97;37.37
38900;BME280;24660;43.238;26.576;2022-09-09T11:40:14;99302.19;;;30.41;37.86
38900;BME280;24660;43.238;26.576;2022-09-09T11:42:41;99303.41;;;30.29;38.29
38900;BME280;24660;43.238;26.576;2022-09-09T11:45:15;99292.59;;;30.05;38.09
38900;BME280;24660;43.238;26.576;2022-09-09T11:47:51;99297.94;;;30.34;38.44
38900;BME280;24660;43.238;26.576;2022-09-09T11:52:43;99298.06;;;30.44;38.25
38900;BME280;24660;43.238;26.576;2022-09-09T11:58:00;99293.25;;;30.12;38.32
38900;BME280;24660;43.238;26.576;2022-09-09T12:00:33;99297.81;;;30.67;38.98
38900;BME280;24660;43.238;26.576;2022-09-09T12:02:59;99300.75;;;30.61;37.76
38900;BME280;24660;43.238;26.576;2022-09-09T12:05:34;99285.19;;;29.22;40.63
38900;BME280;24660;43.238;26.576;2022-09-09T12:08:01;99283.75;;;29.03;40.64
38900;BME280;24660;43.238;26.576;2022-09-09T12:12:53;99278.31;;;29.08;40.89
38900;BME280;24660;43.238;26.576;2022-09-09T12:15:20;99277.09;;;29.66;39.71
38900;BME280;24660;43.238;26.576;2022-09-09T12:17:47;99266.09;;;29.66;40.19
38900;BME280;24660;43.238;26.576;2022-09-09T12:23:01;99267.84;;;30.32;38.69
38900;BME280;24660;43.238;26.576;2022-09-09T12:30:50;99261.28;;;30.60;38.06
38900;BME280;24660;43.238;26.576;2022-09-09T12:33:19;99266.69;;;30.50;38.01
38900;BME280;24660;43.238;26.576;2022-09-09T12:35:50;99259.13;;;30.62;38.00
38900;BME280;24660;43.238;26.576;2022-09-09T12:38:22;99244.28;;;30.03;38.77
38900;BME280;24660;43.238;26.576;2022-09-09T12:40:54;99248.41;;;30.00;38.53
38900;BME280;24660;43.238;26.576;2022-09-09T12:43:21;99243.09;;;29.77;39.07
38900;BME280;24660;43.238;26.576;2022-09-09T12:45:51;99235.72;;;30.21;38.76
38900;BME280;24660;43.238;26.576;2022-09-09T12:48:22;99232.25;;;30.80;37.46
38900;BME280;24660;43.238;26.576;2022-09-09T12:50:50;99238.88;;;30.79;37.71
38900;BME280;24660;43.238;26.576;2022-09-09T12:55:49;99229.25;;;30.81;37.26
38900;BME280;24660;43.238;26.576;2022-09-09T12:58:15;99239.63;;;30.47;37.60
38900;BME280;24660;43.238;26.576;2022-09-09T13:00:48;99227.28;;;30.28;38.30
38900;BME280;24660;43.238;26.576;2022-09-09T13:03:17;99227.94;;;30.89;37.43
38900;BME280;24660;43.238;26.576;2022-09-09T13:05:43;99224.13;;;30.68;37.45
38900;BME280;24660;43.238;26.576;2022-09-09T13:08:09;99215.34;;;30.98;37.82
38900;BME280;24660;43.238;26.576;2022-09-09T13:10:38;99225.41;;;31.88;35.24
38900;BME280;24660;43.238;26.576;2022-09-09T13:13:04;99215.50;;;32.70;34.46
38900;BME280;24660;43.238;26.576;2022-09-09T13:15:30;99222.50;;;32.98;35.04
38900;BME280;24660;43.238;26.576;2022-09-09T13:17:57;99227.22;;;33.44;33.34
38900;BME280;24660;43.238;26.576;2022-09-09T13:20:25;99216.06;;;32.77;34.98
38900;BME280;24660;43.238;26.576;2022-09-09T13:22:51;99214.72;;;33.26;33.83
38900;BME280;24660;43.238;26.576;2022-09-09T13:25:21;99222.47;;;33.70;33.41
38900;BME280;24660;43.238;26.576;2022-09-09T13:27:51;99219.72;;;33.29;33.66
38900;BME280;24660;43.238;26.576;2022-09-09T13:30:27;99214.16;;;32.93;34.27
38900;BME280;24660;43.238;26.576;2022-09-09T13:33:01;99212.75;;;33.72;32.87
38900;BME280;24660;43.238;26.576;2022-09-09T13:35:27;99221.66;;;33.13;34.10
38900;BME280;24660;43.238;26.576;2022-09-09T13:37:52;99209.78;;;33.38;33.42
38900;BME280;24660;43.238;26.576;2022-09-09T13:40:19;99214.72;;;34.46;32.25
38900;BME280;24660;43.238;26.576;2022-09-09T13:42:46;99211.41;;;34.34;32.03
38900;BME280;24660;43.238;26.576;2022-09-09T13:45:15;99204.41;;;32.65;33.69
38900;BME280;24660;43.238;26.576;2022-09-09T13:47:42;99211.25;;;32.32;34.43
38900;BME280;24660;43.238;26.576;2022-09-09T13:50:18;99197.59;;;32.10;34.31
38900;BME280;24660;43.238;26.576;2022-09-09T13:52:43;99204.50;;;32.96;33.73
38900;BME280;24660;43.238;26.576;2022-09-09T13:55:09;99202.00;;;33.35;33.23
38900;BME280;24660;43.238;26.576;2022-09-09T13:57:35;99199.94;;;33.97;32.92
38900;BME280;24660;43.238;26.576;2022-09-09T14:00:00;99190.34;;;33.13;33.09
38900;BME280;24660;43.238;26.576;2022-09-09T14:02:26;99191.38;;;32.40;34.38
38900;BME280;24660;43.238;26.576;2022-09-09T14:04:51;99184.94;;;30.66;36.13
38900;BME280;24660;43.238;26.576;2022-09-09T14:07:19;99190.91;;;30.31;37.03
38900;BME280;24660;43.238;26.576;2022-09-09T14:09:45;99177.78;;;30.16;37.59
38900;BME280;24660;43.238;26.576;2022-09-09T14:12:14;99184.81;;;30.07;37.92
38900;BME280;24660;43.238;26.576;2022-09-09T14:14:40;99180.81;;;29.98;37.78
38900;BME280;24660;43.238;26.576;2022-09-09T14:17:07;99182.09;;;29.68;37.70
38900;BME280;24660;43.238;26.576;2022-09-09T14:19:32;99182.28;;;29.45;38.76
38900;BME280;24660;43.238;26.576;2022-09-09T14:21:57;99174.16;;;29.16;38.85
38900;BME280;24660;43.238;26.576;2022-09-09T14:24:23;99171.97;;;29.35;38.78
38900;BME280;24660;43.238;26.576;2022-09-09T14:26:50;99172.09;;;29.62;38.78